sensor_id;sensor_type;location;lat;lon;timestamp;pressure;altitude;pressure_sealevel;temperature;humidity
8366;BME280;4220;42.502;24.188;2023-07-22T00:01:35;95267.03;;;25.51;72.88
8366;BME280;4220;42.502;24.188;2023-07-22T00:04:02;95285.63;;;25.58;72.94
8366;BME280;4220;42.502;24.188;2023-07-22T00:06:29;95291.69;;;25.41;74.56
8366;BME280;4220;42.502;24.188;2023-07-22T00:08:56;95287.69;;;25.39;74.93
8366;BME280;4220;42.502;24.188;2023-07-22T00:11:24;95274.38;;;25.51;74.51
8366;BME280;4220;42.502;24.188;2023-07-22T00:13:51;95287.22;;;25.59;74.44
8366;BME280;4220;42.502;24.188;2023-07-22T00:16:18;95292.72;;;25.45;75.43
8366;BME280;4220;42.502;24.188;2023-07-22T00:18:45;95287.63;;;25.30;77.02
8366;BME280;4220;42.502;24.188;2023-07-22T00:21:12;95275.22;;;25.38;76.76
8366;BME280;4220;42.502;24.188;2023-07-22T00:23:40;95271.09;;;25.40;76.28
8366;BME280;4220;42.502;24.188;2023-07-22T00:26:07;95241.25;;;25.18;76.21
8366;BME280;4220;42.502;24.188;2023-07-22T00:28:36;95269.06;;;25.46;75.93
8366;BME280;4220;42.502;24.188;2023-07-22T00:31:03;95237.75;;;25.26;76.53
8366;BME280;4220;42.502;24.188;2023-07-22T00:33:29;95266.44;;;25.41;76.60
8366;BME280;4220;42.502;24.188;2023-07-22T00:35:56;95271.16;;;25.49;76.44
8366;BME280;4220;42.502;24.188;2023-07-22T00:38:23;95274.22;;;25.47;76.63
8366;BME280;4220;42.502;24.188;2023-07-22T00:40:50;95279.50;;;25.52;76.32
8366;BME280;4220;42.502;24.188;2023-07-22T00:43:17;95279.38;;;25.35;77.88
8366;BME280;4220;42.502;24.188;2023-07-22T00:45:45;95278.09;;;24.97;80.66
8366;BME280;4220;42.502;24.188;2023-07-22T00:48:12;95280.56;;;24.85;81.68
8366;BME280;4220;42.502;24.188;2023-07-22T00:50:39;95280.28;;;24.86;81.58
8366;BME280;4220;42.502;24.188;2023-07-22T00:53:06;95288.03;;;25.01;81.07
8366;BME280;4220;42.502;24.188;2023-07-22T00:55:34;95299.41;;;25.03;80.74
8366;BME280;4220;42.502;24.188;2023-07-22T00:58:02;95300.09;;;24.59;83.42
8366;BME280;4220;42.502;24.188;2023-07-22T01:00:29;95299.91;;;24.29;85.94
8366;BME280;4220;42.502;24.188;2023-07-22T01:02:57;95302.75;;;24.37;86.04
8366;BME280;4220;42.502;24.188;2023-07-22T01:05:25;95322.00;;;24.09;88.07
8366;BME280;4220;42.502;24.188;2023-07-22T01:07:53;95322.97;;;23.53;92.80
8366;BME280;4220;42.502;24.188;2023-07-22T01:10:21;95307.81;;;23.52;94.11
8366;BME280;4220;42.502;24.188;2023-07-22T01:12:48;95301.28;;;23.85;92.17
8366;BME280;4220;42.502;24.188;2023-07-22T01:15:15;95301.94;;;24.10;90.51
8366;BME280;4220;42.502;24.188;2023-07-22T01:17:42;95292.97;;;24.23;89.39
8366;BME280;4220;42.502;24.188;2023-07-22T01:20:11;95282.53;;;24.43;87.95
8366;BME280;4220;42.502;24.188;2023-07-22T01:22:38;95288.44;;;24.59;86.94
8366;BME280;4220;42.502;24.188;2023-07-22T01:25:09;95292.53;;;24.70;85.98
8366;BME280;4220;42.502;24.188;2023-07-22T01:27:36;95288.53;;;24.81;84.67
8366;BME280;4220;42.502;24.188;2023-07-22T01:30:04;95290.59;;;24.84;84.11
8366;BME280;4220;42.502;24.188;2023-07-22T01:32:32;95292.81;;;24.82;83.95
8366;BME280;4220;42.502;24.188;2023-07-22T01:34:59;95302.69;;;24.78;84.40
8366;BME280;4220;42.502;24.188;2023-07-22T01:37:26;95294.31;;;24.75;85.24
8366;BME280;4220;42.502;24.188;2023-07-22T01:39:52;95293.16;;;24.81;85.42
8366;BME280;4220;42.502;24.188;2023-07-22T01:42:23;95301.38;;;24.62;86.63
8366;BME280;4220;42.502;24.188;2023-07-22T01:44:50;95300.88;;;24.60;87.10
8366;BME280;4220;42.502;24.188;2023-07-22T01:47:17;95300.97;;;24.68;86.95
8366;BME280;4220;42.502;24.188;2023-07-22T01:49:44;95293.75;;;24.78;86.36
8366;BME280;4220;42.502;24.188;2023-07-22T01:52:11;95288.72;;;24.71;86.41
8366;BME280;4220;42.502;24.188;2023-07-22T01:54:38;95283.72;;;24.51;87.04
8366;BME280;4220;42.502;24.188;2023-07-22T01:57:05;95297.06;;;24.47;87.54
8366;BME280;4220;42.502;24.188;2023-07-22T01:59:33;95302.13;;;24.54;87.16
8366;BME280;4220;42.502;24.188;2023-07-22T02:02:00;95301.72;;;24.47;87.62
8366;BME280;4220;42.502;24.188;2023-07-22T02:04:27;95296.41;;;24.42;87.66
8366;BME280;4220;42.502;24.188;2023-07-22T02:06:53;95290.59;;;24.21;89.28
8366;BME280;4220;42.502;24.188;2023-07-22T02:09:20;95284.44;;;24.16;89.98
8366;BME280;4220;42.502;24.188;2023-07-22T02:11:47;95294.59;;;24.24;89.57
8366;BME280;4220;42.502;24.188;2023-07-22T02:14:14;95298.81;;;24.16;89.66
8366;BME280;4220;42.502;24.188;2023-07-22T02:16:42;95299.41;;;24.13;90.43
8366;BME280;4220;42.502;24.188;2023-07-22T02:19:09;95293.41;;;24.16;90.41
8366;BME280;4220;42.502;24.188;2023-07-22T02:21:36;95298.00;;;24.16;90.32
8366;BME280;4220;42.502;24.188;2023-07-22T02:24:03;95306.03;;;24.07;91.15
8366;BME280;4220;42.502;24.188;2023-07-22T02:26:30;95299.56;;;24.03;91.68
8366;BME280;4220;42.502;24.188;2023-07-22T02:28:57;95263.66;;;23.84;91.31
8366;BME280;4220;42.502;24.188;2023-07-22T02:31:24;95294.78;;;24.00;91.83
8366;BME280;4220;42.502;24.188;2023-07-22T02:33:52;95280.50;;;23.94;92.43
8366;BME280;4220;42.502;24.188;2023-07-22T02:36:19;95290.59;;;24.08;91.74
8366;BME280;4220;42.502;24.188;2023-07-22T02:38:46;95254.84;;;23.78;91.96
8366;BME280;4220;42.502;24.188;2023-07-22T02:41:13;95290.94;;;23.87;93.10
8366;BME280;4220;42.502;24.188;2023-07-22T02:43:39;95286.13;;;23.84;93.44
8366;BME280;4220;42.502;24.188;2023-07-22T02:46:07;95302.78;;;23.78;94.04
8366;BME280;4220;42.502;24.188;2023-07-22T02:48:34;95297.22;;;23.69;94.61
8366;BME280;4220;42.502;24.188;2023-07-22T02:51:04;95298.31;;;23.55;95.75
8366;BME280;4220;42.502;24.188;2023-07-22T02:53:31;95293.16;;;23.21;98.49
8366;BME280;4220;42.502;24.188;2023-07-22T02:55:58;95293.91;;;23.08;100.00
8366;BME280;4220;42.502;24.188;2023-07-22T02:58:25;95258.75;;;22.52;100.00
8366;BME280;4220;42.502;24.188;2023-07-22T03:00:52;95231.75;;;22.09;100.00
8366;BME280;4220;42.502;24.188;2023-07-22T03:03:19;95300.94;;;22.71;100.00
8366;BME280;4220;42.502;24.188;2023-07-22T03:05:46;95309.19;;;22.61;100.00
8366;BME280;4220;42.502;24.188;2023-07-22T03:08:15;95298.56;;;22.70;100.00
8366;BME280;4220;42.502;24.188;2023-07-22T03:10:43;95284.28;;;22.64;100.00
8366;BME280;4220;42.502;24.188;2023-07-22T03:13:13;95302.41;;;22.83;100.00
8366;BME280;4220;42.502;24.188;2023-07-22T03:15:40;95301.75;;;22.91;100.00
8366;BME280;4220;42.502;24.188;2023-07-22T03:18:07;95304.81;;;23.03;100.00
8366;BME280;4220;42.502;24.188;2023-07-22T03:20:35;95305.84;;;22.88;100.00
8366;BME280;4220;42.502;24.188;2023-07-22T03:23:03;95293.84;;;22.75;100.00
8366;BME280;4220;42.502;24.188;2023-07-22T03:25:31;95275.59;;;22.67;100.00
8366;BME280;4220;42.502;24.188;2023-07-22T03:28:00;95305.41;;;22.81;100.00
8366;BME280;4220;42.502;24.188;2023-07-22T03:30:28;95310.91;;;22.95;100.00
8366;BME280;4220;42.502;24.188;2023-07-22T03:32:55;95312.94;;;23.03;100.00
8366;BME280;4220;42.502;24.188;2023-07-22T03:35:23;95304.88;;;23.16;100.00
8366;BME280;4220;42.502;24.188;2023-07-22T03:37:50;95313.84;;;23.30;100.00
8366;BME280;4220;42.502;24.188;2023-07-22T03:40:16;95308.75;;;23.10;100.00
8366;BME280;4220;42.502;24.188;2023-07-22T03:42:47;95302.13;;;22.84;100.00
8366;BME280;4220;42.502;24.188;2023-07-22T03:45:14;95308.34;;;22.85;100.00
8366;BME280;4220;42.502;24.188;2023-07-22T03:47:44;95312.19;;;22.78;100.00
8366;BME280;4220;42.502;24.188;2023-07-22T03:50:11;95310.56;;;22.59;100.00
8366;BME280;4220;42.502;24.188;2023-07-22T03:52:38;95314.53;;;22.66;100.00
8366;BME280;4220;42.502;24.188;2023-07-22T03:55:06;95316.03;;;22.77;100.00
8366;BME280;4220;42.502;24.188;2023-07-22T03:57:33;95311.69;;;22.76;100.00
8366;BME280;4220;42.502;24.188;2023-07-22T04:00:01;95313.38;;;22.91;100.00
8366;BME280;4220;42.502;24.188;2023-07-22T04:02:29;95312.50;;;22.96;100.00
8366;BME280;4220;42.502;24.188;2023-07-22T04:04:56;95307.91;;;22.96;100.00
8366;BME280;4220;42.502;24.188;2023-07-22T04:07:23;95309.41;;;23.02;100.00
8366;BME280;4220;42.502;24.188;2023-07-22T04:09:50;95303.66;;;23.09;100.00
8366;BME280;4220;42.502;24.188;2023-07-22T04:12:16;95304.97;;;23.11;100.00
8366;BME280;4220;42.502;24.188;2023-07-22T04:14:43;95306.91;;;23.24;100.00
8366;BME280;4220;42.502;24.188;2023-07-22T04:17:11;95286.13;;;23.20;100.00
8366;BME280;4220;42.502;24.188;2023-07-22T04:19:40;95301.28;;;23.39;100.00
8366;BME280;4220;42.502;24.188;2023-07-22T04:22:07;95305.53;;;23.59;100.00
8366;BME280;4220;42.502;24.188;2023-07-22T04:24:35;95313.91;;;23.76;100.00
8366;BME280;4220;42.502;24.188;2023-07-22T04:27:03;95317.00;;;23.83;100.00
8366;BME280;4220;42.502;24.188;2023-07-22T04:29:30;95307.19;;;23.87;99.78
8366;BME280;4220;42.502;24.188;2023-07-22T04:31:57;95310.34;;;24.08;98.73
8366;BME280;4220;42.502;24.188;2023-07-22T04:34:28;95299.50;;;24.08;98.13
8366;BME280;4220;42.502;24.188;2023-07-22T04:36:55;95312.97;;;24.27;97.48
8366;BME280;4220;42.502;24.188;2023-07-22T04:39:23;95310.16;;;24.32;97.48
8366;BME280;4220;42.502;24.188;2023-07-22T04:41:50;95315.06;;;24.16;99.00
8366;BME280;4220;42.502;24.188;2023-07-22T04:44:17;95319.59;;;24.07;100.00
8366;BME280;4220;42.502;24.188;2023-07-22T04:46:44;95302.22;;;24.08;100.00
8366;BME280;4220;42.502;24.188;2023-07-22T04:49:11;95319.28;;;24.09;100.00
8366;BME280;4220;42.502;24.188;2023-07-22T04:51:40;95315.38;;;24.15;100.00
8366;BME280;4220;42.502;24.188;2023-07-22T04:54:06;95308.16;;;24.37;99.38
8366;BME280;4220;42.502;24.188;2023-07-22T04:56:33;95310.84;;;24.51;98.84
8366;BME280;4220;42.502;24.188;2023-07-22T04:59:00;95305.81;;;24.58;98.05
8366;BME280;4220;42.502;24.188;2023-07-22T05:01:27;95296.97;;;24.66;97.10
8366;BME280;4220;42.502;24.188;2023-07-22T05:03:54;95279.47;;;24.72;96.01
8366;BME280;4220;42.502;24.188;2023-07-22T05:06:21;95308.47;;;24.99;95.28
8366;BME280;4220;42.502;24.188;2023-07-22T05:08:50;95317.38;;;25.13;94.80
8366;BME280;4220;42.502;24.188;2023-07-22T05:11:17;95318.31;;;25.30;93.41
8366;BME280;4220;42.502;24.188;2023-07-22T05:13:44;95308.91;;;25.50;91.69
8366;BME280;4220;42.502;24.188;2023-07-22T05:16:11;95315.19;;;25.59;91.45
8366;BME280;4220;42.502;24.188;2023-07-22T05:18:38;95312.50;;;25.68;90.10
8366;BME280;4220;42.502;24.188;2023-07-22T05:21:04;95316.03;;;25.68;89.75
8366;BME280;4220;42.502;24.188;2023-07-22T05:23:31;95281.31;;;25.43;90.10
8366;BME280;4220;42.502;24.188;2023-07-22T05:26:00;95307.81;;;25.82;88.93
8366;BME280;4220;42.502;24.188;2023-07-22T05:28:27;95309.63;;;25.95;87.70
8366;BME280;4220;42.502;24.188;2023-07-22T05:30:55;95323.81;;;26.14;87.01
8366;BME280;4220;42.502;24.188;2023-07-22T05:33:22;95321.81;;;26.28;85.76
8366;BME280;4220;42.502;24.188;2023-07-22T05:35:49;95323.75;;;26.36;85.72
8366;BME280;4220;42.502;24.188;2023-07-22T05:38:15;95322.13;;;26.35;85.11
8366;BME280;4220;42.502;24.188;2023-07-22T05:40:42;95324.56;;;26.45;84.49
8366;BME280;4220;42.502;24.188;2023-07-22T05:43:11;95326.38;;;26.58;83.73
8366;BME280;4220;42.502;24.188;2023-07-22T05:45:38;95324.91;;;26.61;83.45
8366;BME280;4220;42.502;24.188;2023-07-22T05:48:05;95318.72;;;26.69;82.73
8366;BME280;4220;42.502;24.188;2023-07-22T05:50:32;95326.13;;;26.86;81.91
8366;BME280;4220;42.502;24.188;2023-07-22T05:52:59;95317.47;;;26.84;81.38
8366;BME280;4220;42.502;24.188;2023-07-22T05:55:26;95329.34;;;26.96;81.02
8366;BME280;4220;42.502;24.188;2023-07-22T05:57:53;95316.53;;;26.97;80.63
8366;BME280;4220;42.502;24.188;2023-07-22T06:00:21;95326.66;;;27.05;79.59
8366;BME280;4220;42.502;24.188;2023-07-22T06:02:48;95316.88;;;27.04;78.80
8366;BME280;4220;42.502;24.188;2023-07-22T06:05:15;95328.88;;;27.11;79.04
8366;BME280;4220;42.502;24.188;2023-07-22T06:07:42;95328.09;;;27.11;78.88
8366;BME280;4220;42.502;24.188;2023-07-22T06:10:09;95328.25;;;27.23;78.09
8366;BME280;4220;42.502;24.188;2023-07-22T06:12:36;95338.97;;;27.11;79.02
8366;BME280;4220;42.502;24.188;2023-07-22T06:15:04;95335.28;;;26.98;79.42
8366;BME280;4220;42.502;24.188;2023-07-22T06:17:33;95325.34;;;26.94;80.10
8366;BME280;4220;42.502;24.188;2023-07-22T06:20:00;95320.22;;;27.18;79.34
8366;BME280;4220;42.502;24.188;2023-07-22T06:22:27;95326.00;;;27.34;78.15
8366;BME280;4220;42.502;24.188;2023-07-22T06:24:54;95334.84;;;27.39;78.46
8366;BME280;4220;42.502;24.188;2023-07-22T06:27:21;95332.13;;;27.48;77.88
8366;BME280;4220;42.502;24.188;2023-07-22T06:29:48;95322.19;;;27.52;78.14
8366;BME280;4220;42.502;24.188;2023-07-22T06:32:15;95325.06;;;27.64;77.14
8366;BME280;4220;42.502;24.188;2023-07-22T06:34:43;95325.66;;;27.78;76.71
8366;BME280;4220;42.502;24.188;2023-07-22T06:37:10;95328.72;;;27.76;76.29
8366;BME280;4220;42.502;24.188;2023-07-22T06:39:37;95327.06;;;27.93;74.86
8366;BME280;4220;42.502;24.188;2023-07-22T06:42:04;95324.19;;;27.98;74.96
8366;BME280;4220;42.502;24.188;2023-07-22T06:44:31;95329.03;;;27.83;75.88
8366;BME280;4220;42.502;24.188;2023-07-22T06:46:57;95320.50;;;27.85;76.02
8366;BME280;4220;42.502;24.188;2023-07-22T06:49:24;95334.78;;;27.82;76.18
8366;BME280;4220;42.502;24.188;2023-07-22T06:51:52;95329.06;;;27.66;77.16
8366;BME280;4220;42.502;24.188;2023-07-22T06:54:19;95327.78;;;27.38;79.35
8366;BME280;4220;42.502;24.188;2023-07-22T06:56:46;95325.06;;;27.30;79.47
8366;BME280;4220;42.502;24.188;2023-07-22T06:59:13;95327.31;;;27.53;78.53
8366;BME280;4220;42.502;24.188;2023-07-22T07:01:40;95331.63;;;27.71;77.97
8366;BME280;4220;42.502;24.188;2023-07-22T07:04:07;95331.88;;;27.96;76.93
8366;BME280;4220;42.502;24.188;2023-07-22T07:06:34;95332.00;;;28.16;75.92
8366;BME280;4220;42.502;24.188;2023-07-22T07:09:02;95323.44;;;28.35;74.96
8366;BME280;4220;42.502;24.188;2023-07-22T07:11:30;95337.78;;;28.61;74.17
8366;BME280;4220;42.502;24.188;2023-07-22T07:13:56;95333.13;;;28.53;73.59
8366;BME280;4220;42.502;24.188;2023-07-22T07:30:07;95324.44;;;28.22;75.53
8366;BME280;4220;42.502;24.188;2023-07-22T07:32:35;95330.97;;;28.38;75.59
8366;BME280;4220;42.502;24.188;2023-07-22T07:35:03;95337.13;;;28.64;75.03
8366;BME280;4220;42.502;24.188;2023-07-22T07:37:31;95325.38;;;28.72;74.21
8366;BME280;4220;42.502;24.188;2023-07-22T07:39:58;95323.59;;;28.97;73.65
8366;BME280;4220;42.502;24.188;2023-07-22T07:42:25;95330.50;;;29.24;72.60
8366;BME280;4220;42.502;24.188;2023-07-22T07:44:52;95330.16;;;29.46;71.17
8366;BME280;4220;42.502;24.188;2023-07-22T07:47:20;95314.47;;;29.55;69.63
8366;BME280;4220;42.502;24.188;2023-07-22T07:49:47;95306.66;;;29.65;69.28
8366;BME280;4220;42.502;24.188;2023-07-22T07:52:14;95293.78;;;29.66;69.11
8366;BME280;4220;42.502;24.188;2023-07-22T07:54:41;95317.38;;;29.91;68.36
8366;BME280;4220;42.502;24.188;2023-07-22T07:57:08;95310.88;;;29.96;68.09
8366;BME280;4220;42.502;24.188;2023-07-22T07:59:34;95318.44;;;30.11;67.43
8366;BME280;4220;42.502;24.188;2023-07-22T08:02:01;95300.78;;;30.20;66.57
8366;BME280;4220;42.502;24.188;2023-07-22T08:04:31;95317.81;;;30.50;65.39
8366;BME280;4220;42.502;24.188;2023-07-22T08:06:58;95276.72;;;30.26;65.60
8366;BME280;4220;42.502;24.188;2023-07-22T08:09:24;95309.84;;;30.45;65.67
8366;BME280;4220;42.502;24.188;2023-07-22T08:11:51;95306.88;;;30.38;65.79
8366;BME280;4220;42.502;24.188;2023-07-22T08:14:18;95312.25;;;30.59;65.73
8366;BME280;4220;42.502;24.188;2023-07-22T08:16:45;95306.31;;;30.69;64.69
8366;BME280;4220;42.502;24.188;2023-07-22T08:19:12;95319.06;;;30.89;63.62
8366;BME280;4220;42.502;24.188;2023-07-22T08:21:40;95311.31;;;31.03;62.31
8366;BME280;4220;42.502;24.188;2023-07-22T08:24:07;95316.53;;;31.20;62.14
8366;BME280;4220;42.502;24.188;2023-07-22T08:26:34;95288.16;;;30.88;62.85
8366;BME280;4220;42.502;24.188;2023-07-22T08:29:01;95317.47;;;30.88;62.93
8366;BME280;4220;42.502;24.188;2023-07-22T08:31:28;95321.34;;;30.87;63.05
8366;BME280;4220;42.502;24.188;2023-07-22T08:33:55;95312.25;;;30.71;63.52
8366;BME280;4220;42.502;24.188;2023-07-22T08:36:22;95216.97;;;29.92;64.15
8366;BME280;4220;42.502;24.188;2023-07-22T08:38:50;95302.19;;;30.38;64.75
8366;BME280;4220;42.502;24.188;2023-07-22T08:41:17;95321.34;;;30.38;65.26
8366;BME280;4220;42.502;24.188;2023-07-22T08:43:45;95323.06;;;30.43;64.30
8366;BME280;4220;42.502;24.188;2023-07-22T08:46:12;95298.34;;;30.52;63.51
8366;BME280;4220;42.502;24.188;2023-07-22T08:48:41;95315.28;;;30.81;62.66
8366;BME280;4220;42.502;24.188;2023-07-22T08:51:12;95299.91;;;30.77;63.12
8366;BME280;4220;42.502;24.188;2023-07-22T08:53:40;95315.31;;;31.06;62.26
8366;BME280;4220;42.502;24.188;2023-07-22T08:56:08;95301.66;;;31.21;61.06
8366;BME280;4220;42.502;24.188;2023-07-22T08:58:36;95287.34;;;31.40;60.74
8366;BME280;4220;42.502;24.188;2023-07-22T09:01:03;95286.78;;;31.74;59.55
8366;BME280;4220;42.502;24.188;2023-07-22T09:03:30;95295.19;;;31.97;58.27
8366;BME280;4220;42.502;24.188;2023-07-22T09:05:58;95276.00;;;31.97;56.72
8366;BME280;4220;42.502;24.188;2023-07-22T09:08:25;95249.19;;;31.75;56.39
8366;BME280;4220;42.502;24.188;2023-07-22T09:10:53;95294.47;;;32.12;55.92
8366;BME280;4220;42.502;24.188;2023-07-22T09:13:22;95286.03;;;32.05;55.96
8366;BME280;4220;42.502;24.188;2023-07-22T09:15:50;95282.00;;;32.30;55.13
8366;BME280;4220;42.502;24.188;2023-07-22T09:18:18;95270.75;;;32.35;54.39
8366;BME280;4220;42.502;24.188;2023-07-22T09:20:44;95267.47;;;32.61;53.32
8366;BME280;4220;42.502;24.188;2023-07-22T09:23:11;95272.66;;;32.81;53.34
8366;BME280;4220;42.502;24.188;2023-07-22T09:25:39;95271.47;;;32.98;52.61
8366;BME280;4220;42.502;24.188;2023-07-22T09:28:06;95237.53;;;32.90;51.49
8366;BME280;4220;42.502;24.188;2023-07-22T09:30:35;95279.03;;;33.39;50.92
8366;BME280;4220;42.502;24.188;2023-07-22T09:33:04;95270.91;;;33.62;49.94
8366;BME280;4220;42.502;24.188;2023-07-22T09:35:45;95276.25;;;33.74;47.89
8366;BME280;4220;42.502;24.188;2023-07-22T09:38:12;95277.41;;;33.73;45.49
8366;BME280;4220;42.502;24.188;2023-07-22T09:40:41;95262.66;;;33.62;44.74
8366;BME280;4220;42.502;24.188;2023-07-22T09:43:10;95270.81;;;33.78;44.44
8366;BME280;4220;42.502;24.188;2023-07-22T09:45:39;95276.09;;;33.67;44.70
8366;BME280;4220;42.502;24.188;2023-07-22T09:48:05;95268.13;;;33.43;45.48
8366;BME280;4220;42.502;24.188;2023-07-22T09:50:36;95265.53;;;33.69;44.72
8366;BME280;4220;42.502;24.188;2023-07-22T09:53:04;95267.06;;;34.08;44.39
8366;BME280;4220;42.502;24.188;2023-07-22T09:55:32;95264.91;;;34.17;44.74
8366;BME280;4220;42.502;24.188;2023-07-22T09:58:00;95244.34;;;33.92;44.33
8366;BME280;4220;42.502;24.188;2023-07-22T10:00:30;95258.25;;;33.99;43.71
8366;BME280;4220;42.502;24.188;2023-07-22T10:02:59;95209.31;;;33.89;43.44
8366;BME280;4220;42.502;24.188;2023-07-22T10:05:27;95253.88;;;34.17;42.83
8366;BME280;4220;42.502;24.188;2023-07-22T10:07:56;95252.16;;;34.09;42.81
8366;BME280;4220;42.502;24.188;2023-07-22T10:10:27;95245.50;;;33.91;43.00
8366;BME280;4220;42.502;24.188;2023-07-22T10:12:57;95226.50;;;33.83;43.22
8366;BME280;4220;42.502;24.188;2023-07-22T10:15:25;95234.06;;;33.89;43.22
8366;BME280;4220;42.502;24.188;2023-07-22T10:17:53;95232.59;;;33.73;43.58
8366;BME280;4220;42.502;24.188;2023-07-22T10:20:23;95233.34;;;33.92;43.57
8366;BME280;4220;42.502;24.188;2023-07-22T10:22:51;95247.16;;;33.96;43.33
8366;BME280;4220;42.502;24.188;2023-07-22T10:25:19;95228.50;;;34.05;43.26
8366;BME280;4220;42.502;24.188;2023-07-22T10:27:47;95206.50;;;33.86;42.57
8366;BME280;4220;42.502;24.188;2023-07-22T10:30:16;95220.94;;;34.02;43.30
8366;BME280;4220;42.502;24.188;2023-07-22T10:32:45;95215.66;;;34.12;41.99
8366;BME280;4220;42.502;24.188;2023-07-22T10:35:17;95228.84;;;34.26;41.97
8366;BME280;4220;42.502;24.188;2023-07-22T10:37:45;95228.03;;;34.26;42.63
8366;BME280;4220;42.502;24.188;2023-07-22T10:40:24;95228.19;;;34.10;43.76
8366;BME280;4220;42.502;24.188;2023-07-22T10:42:58;95222.38;;;34.15;41.91
8366;BME280;4220;42.502;24.188;2023-07-22T10:45:27;95223.19;;;34.42;42.26
8366;BME280;4220;42.502;24.188;2023-07-22T10:48:06;95216.25;;;34.25;42.16
8366;BME280;4220;42.502;24.188;2023-07-22T10:50:43;95227.53;;;34.43;42.65
8366;BME280;4220;42.502;24.188;2023-07-22T10:53:19;95214.53;;;34.66;41.37
8366;BME280;4220;42.502;24.188;2023-07-22T10:56:06;95217.16;;;34.85;41.42
8366;BME280;4220;42.502;24.188;2023-07-22T10:58:37;95200.72;;;34.92;41.43
8366;BME280;4220;42.502;24.188;2023-07-22T11:01:22;95203.66;;;35.36;40.91
8366;BME280;4220;42.502;24.188;2023-07-22T11:04:24;95202.63;;;35.47;40.78
8366;BME280;4220;42.502;24.188;2023-07-22T11:06:56;95213.41;;;35.56;38.55
8366;BME280;4220;42.502;24.188;2023-07-22T11:09:38;95220.13;;;35.59;36.70
8366;BME280;4220;42.502;24.188;2023-07-22T11:12:09;95208.09;;;35.40;35.93
8366;BME280;4220;42.502;24.188;2023-07-22T11:14:39;95209.66;;;35.41;36.08
8366;BME280;4220;42.502;24.188;2023-07-22T11:17:07;95201.44;;;35.48;37.07
8366;BME280;4220;42.502;24.188;2023-07-22T11:19:35;95208.25;;;35.55;37.52
8366;BME280;4220;42.502;24.188;2023-07-22T11:22:02;95182.47;;;35.43;37.58
8366;BME280;4220;42.502;24.188;2023-07-22T11:24:32;95199.59;;;35.56;38.03
8366;BME280;4220;42.502;24.188;2023-07-22T11:27:02;95199.25;;;35.58;37.83
8366;BME280;4220;42.502;24.188;2023-07-22T11:29:30;95203.41;;;35.81;36.73
8366;BME280;4220;42.502;24.188;2023-07-22T11:31:57;95173.97;;;35.96;37.00
8366;BME280;4220;42.502;24.188;2023-07-22T11:34:24;95191.34;;;36.40;36.54
8366;BME280;4220;42.502;24.188;2023-07-22T11:36:52;95195.91;;;36.66;35.77
8366;BME280;4220;42.502;24.188;2023-07-22T11:39:20;95168.44;;;36.36;36.20
8366;BME280;4220;42.502;24.188;2023-07-22T11:41:48;95127.75;;;36.37;35.97
8366;BME280;4220;42.502;24.188;2023-07-22T11:44:19;95167.06;;;37.39;35.29
8366;BME280;4220;42.502;24.188;2023-07-22T11:46:48;95160.44;;;37.79;34.42
8366;BME280;4220;42.502;24.188;2023-07-22T11:49:25;95148.94;;;37.59;33.33
8366;BME280;4220;42.502;24.188;2023-07-22T11:51:54;95094.22;;;37.07;33.32
8366;BME280;4220;42.502;24.188;2023-07-22T11:54:22;95169.88;;;37.67;33.94
8366;BME280;4220;42.502;24.188;2023-07-22T11:56:49;95158.00;;;37.42;33.67
8366;BME280;4220;42.502;24.188;2023-07-22T11:59:17;95125.25;;;36.68;35.47
8366;BME280;4220;42.502;24.188;2023-07-22T12:02:00;95162.22;;;36.46;35.80
8366;BME280;4220;42.502;24.188;2023-07-22T12:04:27;95162.94;;;36.43;35.42
8366;BME280;4220;42.502;24.188;2023-07-22T12:06:54;95163.13;;;36.71;34.72
8366;BME280;4220;42.502;24.188;2023-07-22T12:09:22;95156.09;;;36.85;33.99
8366;BME280;4220;42.502;24.188;2023-07-22T12:11:55;95147.28;;;36.61;35.33
8366;BME280;4220;42.502;24.188;2023-07-22T12:14:24;95143.00;;;36.67;35.13
8366;BME280;4220;42.502;24.188;2023-07-22T12:16:55;95062.81;;;36.60;34.78
8366;BME280;4220;42.502;24.188;2023-07-22T12:19:23;95142.22;;;37.67;33.89
8366;BME280;4220;42.502;24.188;2023-07-22T12:21:50;95148.22;;;38.15;31.63
8366;BME280;4220;42.502;24.188;2023-07-22T12:24:17;95131.94;;;37.68;31.86
8366;BME280;4220;42.502;24.188;2023-07-22T12:26:43;95139.03;;;37.58;32.06
8366;BME280;4220;42.502;24.188;2023-07-22T12:29:10;95144.81;;;37.14;31.36
8366;BME280;4220;42.502;24.188;2023-07-22T12:31:39;95117.13;;;37.11;31.94
8366;BME280;4220;42.502;24.188;2023-07-22T12:34:05;95132.22;;;37.38;32.21
8366;BME280;4220;42.502;24.188;2023-07-22T12:36:32;95126.38;;;37.47;32.16
8366;BME280;4220;42.502;24.188;2023-07-22T12:38:59;95142.88;;;37.29;32.35
8366;BME280;4220;42.502;24.188;2023-07-22T12:41:26;95123.97;;;37.42;32.31
8366;BME280;4220;42.502;24.188;2023-07-22T12:43:53;95135.72;;;37.14;32.54
8366;BME280;4220;42.502;24.188;2023-07-22T12:46:19;95127.50;;;36.49;33.28
8366;BME280;4220;42.502;24.188;2023-07-22T12:48:48;95123.34;;;36.25;34.32
8366;BME280;4220;42.502;24.188;2023-07-22T12:51:15;95127.16;;;36.64;33.33
8366;BME280;4220;42.502;24.188;2023-07-22T12:53:41;95123.53;;;36.50;33.91
8366;BME280;4220;42.502;24.188;2023-07-22T12:56:08;95122.25;;;37.09;33.07
8366;BME280;4220;42.502;24.188;2023-07-22T12:58:35;95112.00;;;37.13;33.19
8366;BME280;4220;42.502;24.188;2023-07-22T13:01:02;95115.28;;;37.43;33.16
8366;BME280;4220;42.502;24.188;2023-07-22T13:03:29;95117.69;;;37.59;33.09
8366;BME280;4220;42.502;24.188;2023-07-22T13:05:57;95097.13;;;37.77;31.74
8366;BME280;4220;42.502;24.188;2023-07-22T13:08:24;95118.13;;;38.14;31.87
8366;BME280;4220;42.502;24.188;2023-07-22T13:10:51;95109.03;;;38.31;31.47
8366;BME280;4220;42.502;24.188;2023-07-22T13:13:17;95095.56;;;38.26;31.47
8366;BME280;4220;42.502;24.188;2023-07-22T13:15:44;95027.16;;;38.09;31.23
8366;BME280;4220;42.502;24.188;2023-07-22T13:18:11;95116.91;;;38.68;31.14
8366;BME280;4220;42.502;24.188;2023-07-22T13:20:39;95120.06;;;38.63;29.87
8366;BME280;4220;42.502;24.188;2023-07-22T13:23:07;95115.38;;;38.10;30.05
8366;BME280;4220;42.502;24.188;2023-07-22T13:25:34;95117.34;;;37.85;31.01
8366;BME280;4220;42.502;24.188;2023-07-22T13:28:01;95105.06;;;37.89;31.10